»·PEaware :: N12SA KSBA-KBUR

N12SA :: KSBA-KBUR

FLIGHT INFORMATION

Flight Status: Arrived
Operator: Privately registered:
United States
More flights under this callsign
Pilot: Johnny M. (21174)
Aircraft: CESSNA 172 SKYHAWK
(C172)
More flights by this aircraft type
Origin: KSBA Santa Barbara Mun
United States
Destination: KBUR Bob Hope-Burbank
United States
More flights between these airports :: More routes between these airports
Route: +OHIGH V386 FIM
File this flight plan on PilotEdge
Remarks: CAT-8 Rating
Altitude:
(Current/Filed)
3,500ft
Speed:
(Current/Filed)
105kts
Departed: 06-Dec-18 05:02 PM
Arrived: 06-Dec-18 05:51 PM
Distance/Time
Traveled:
75nm/0:49
Distance/Time
To Go:
Arrived

Flight Plot

Page will automatically refresh every two minutes.

Flight plan parsing failed; only flown route is shown


Map Options




Map Legend


Flown Route
Filed Route
Departure Airport
Arrival Airport
Navaid (VOR, NDB)
Fix

Horizontal Profiles

Position Reports

Time Latitude Longitude Heading Altitude Ground
Speed
06-Dec-18 16:49 34.432569 -119.835085 71 17ft 0kts
06-Dec-18 16:50 34.432569 -119.835085 71 17ft 0kts
06-Dec-18 16:51 34.432569 -119.835085 71 17ft 0kts
06-Dec-18 16:52 34.432569 -119.835085 71 17ft 0kts
06-Dec-18 16:53 34.432569 -119.835085 71 17ft 0kts
06-Dec-18 16:54 34.432569 -119.835085 71 17ft 0kts
06-Dec-18 16:55 34.432569 -119.835085 71 17ft 0kts
06-Dec-18 16:56 34.432569 -119.835085 71 17ft 0kts
06-Dec-18 16:57 34.432569 -119.835085 71 17ft 0kts
06-Dec-18 16:58 34.432278 -119.835300 232 17ft 8kts
06-Dec-18 16:59 34.430706 -119.839772 249 17ft 0kts
06-Dec-18 17:00 34.430706 -119.839772 249 17ft 0kts
06-Dec-18 17:01 34.422279 -119.837455 160 206ft 85kts
06-Dec-18 17:02 34.399652 -119.829132 164 1354ft 80kts
06-Dec-18 17:03 34.377425 -119.815940 93 2321ft 82kts
06-Dec-18 17:04 34.387430 -119.792774 52 3322ft 79kts
06-Dec-18 17:05 34.402029 -119.764326 55 3500ft 108kts
06-Dec-18 17:06 34.417594 -119.733120 55 3500ft 108kts
06-Dec-18 17:07 34.426835 -119.698508 81 3500ft 110kts
06-Dec-18 17:08 34.428201 -119.661256 86 3500ft 111kts
06-Dec-18 17:09 34.428669 -119.623816 86 3500ft 111kts
06-Dec-18 17:10 34.429051 -119.586353 86 3500ft 111kts
06-Dec-18 17:11 34.429412 -119.548812 86 3500ft 111kts
06-Dec-18 17:12 34.429759 -119.510750 86 3463ft 112kts
06-Dec-18 17:13 34.430182 -119.478376 82 4400ft 83kts
06-Dec-18 17:14 34.430543 -119.450594 81 5295ft 82kts
06-Dec-18 17:15 34.430787 -119.422795 81 6135ft 83kts
06-Dec-18 17:16 34.431014 -119.394904 81 6927ft 83kts
06-Dec-18 17:17 34.431278 -119.365671 82 7471ft 105kts
06-Dec-18 17:18 34.431290 -119.332152 82 7470ft 98kts
06-Dec-18 17:19 34.429509 -119.299640 94 7469ft 96kts
06-Dec-18 17:20 34.424121 -119.268211 94 7470ft 94kts
06-Dec-18 17:21 34.418871 -119.237498 93 7474ft 93kts
06-Dec-18 17:22 34.413526 -119.206663 94 7475ft 93kts
06-Dec-18 17:23 34.408257 -119.176291 94 7476ft 93kts
06-Dec-18 17:24 34.402906 -119.145428 94 7477ft 93kts
06-Dec-18 17:25 34.397537 -119.114519 94 7479ft 93kts
06-Dec-18 17:26 34.392183 -119.083700 94 7480ft 93kts
06-Dec-18 17:27 34.386799 -119.052781 94 7481ft 93kts
06-Dec-18 17:28 34.381404 -119.021819 94 7481ft 94kts
06-Dec-18 17:29 34.375969 -118.990663 94 7482ft 95kts
06-Dec-18 17:30 34.370325 -118.958335 94 7377ft 101kts
06-Dec-18 17:31 34.364270 -118.924407 93 6749ft 103kts
06-Dec-18 17:32 34.359016 -118.894240 109 6258ft 87kts
06-Dec-18 17:33 34.352409 -118.866893 114 5703ft 82kts
06-Dec-18 17:34 34.344724 -118.840806 112 5494ft 83kts
06-Dec-18 17:35 34.336978 -118.814767 111 5044ft 82kts
06-Dec-18 17:36 34.329337 -118.789083 108 4423ft 81kts
06-Dec-18 17:37 34.321719 -118.763442 105 3810ft 81kts
06-Dec-18 17:38 34.313871 -118.736792 103 3499ft 90kts
06-Dec-18 17:39 34.305077 -118.707190 102 3496ft 96kts
06-Dec-18 17:40 34.295924 -118.676472 102 3495ft 98kts
06-Dec-18 17:41 34.286112 -118.643388 102 3495ft 113kts
06-Dec-18 17:42 34.275057 -118.606431 103 3490ft 120kts
06-Dec-18 17:43 34.263543 -118.567815 103 3489ft 123kts
06-Dec-18 17:44 34.251737 -118.528526 104 2987ft 127kts
06-Dec-18 17:45 34.239836 -118.488892 104 2157ft 123kts
06-Dec-18 17:46 34.228819 -118.452136 104 1778ft 108kts
06-Dec-18 17:47 34.211633 -118.422915 136 1781ft 106kts
06-Dec-18 17:48 34.196866 -118.397632 72 1652ft 88kts
06-Dec-18 17:49 34.197947 -118.373165 85 932ft 65kts
06-Dec-18 17:50 34.197033 -118.360308 178 781ft 0kts
06-Dec-18 17:51 34.196822 -118.359676 90 781ft 18kts
06-Dec-18 17:52 34.195664 -118.359045 12 781ft 0kts

Navigation Log

Ident Type
Flight plan parsing failed, navigation log unavailable